Time;durP1;ratioP1;P1;durP2;ratioP2;P2;SDS_P1;SDS_P2;PMS_P1;PMS_P2;Temp;Humidity;BMP_temperature;BMP_pressure;BME280_temperature;BME280_humidity;BME280_pressure;Samples;Min_cycle;Max_cycle;Signal;HPM_P1;HPM_P2
2021/11/05 00:01:24;;;;;;;;;;;;;;;4.62;100.00;101420.81;5052550;28;19932;-49
2021/11/05 00:03:51;;;;;;;;;;;;;;;4.57;100.00;101420.09;5053184;28;19951;-52
2021/11/05 00:06:18;;;;;;;;;;;;;;;4.55;100.00;101420.13;5053459;28;20384;-52
2021/11/05 00:08:44;;;;;;;;;;;;;;;4.60;100.00;101421.75;5055772;28;19932;-54
2021/11/05 00:11:11;;;;;;;;;;;;;;;4.54;100.00;101423.63;5056000;28;19924;-52
2021/11/05 00:13:38;;;;;;;;;;;;;;;4.60;100.00;101425.19;5071160;28;19929;-53
2021/11/05 00:16:04;;;;;;;;;;;;;;;4.55;100.00;101427.94;5055790;28;19935;-51
2021/11/05 00:18:31;;;;;;;;;;;;;;;4.46;100.00;101427.34;5055715;28;20285;-53
2021/11/05 00:20:58;;;;;;;;;;;;;;;4.47;100.00;101432.53;5053369;28;19928;-54
2021/11/05 00:23:25;;;;;;;;;;;;;;;4.47;100.00;101435.16;5053701;28;19948;-55
2021/11/05 00:25:52;;;;;;;;;;;;;;;4.52;100.00;101435.00;5055276;28;19924;-51
2021/11/05 00:28:18;;;;;;;;;;;;;;;4.53;100.00;101436.72;5052542;28;19960;-51
2021/11/05 00:30:45;;;;;;;;;;;;;;;4.53;100.00;101437.56;5052774;28;20369;-49
2021/11/05 00:33:12;;;;;;;;;;;;;;;4.59;100.00;101439.09;5052635;28;19925;-53
2021/11/05 00:35:39;;;;;;;;;;;;;;;4.54;100.00;101449.69;5053801;28;19925;-52
2021/11/05 00:38:05;;;;;;;;;;;;;;;4.60;100.00;101447.78;5055399;28;19925;-51
2021/11/05 00:40:32;;;;;;;;;;;;;;;4.55;100.00;101448.78;5054091;28;20396;-54
2021/11/05 00:42:59;;;;;;;;;;;;;;;4.53;100.00;101455.78;5055461;28;19932;-51
2021/11/05 00:45:25;;;;;;;;;;;;;;;4.61;100.00;101457.28;5052399;28;20307;-53
2021/11/05 00:47:52;;;;;;;;;;;;;;;4.59;100.00;101451.28;5050762;28;19931;-53
2021/11/05 00:50:19;;;;;;;;;;;;;;;4.59;100.00;101464.31;5069848;28;19929;-51
2021/11/05 00:52:45;;;;;;;;;;;;;;;4.53;100.00;101465.38;5055288;28;20355;-51
2021/11/05 00:55:12;;;;;;;;;;;;;;;4.50;100.00;101463.69;5055137;28;19956;-50
2021/11/05 00:57:39;;;;;;;;;;;;;;;4.49;100.00;101467.19;5054960;28;19924;-51
2021/11/05 01:00:08;;;;;;;;;;;;;;;4.48;100.00;101467.25;5070548;28;19928;-51
2021/11/05 01:02:34;;;;;;;;;;;;;;;4.42;100.00;101468.28;5055053;28;19939;-51
2021/11/05 01:05:01;;;;;;;;;;;;;;;4.41;100.00;101477.00;5054921;28;19925;-49
2021/11/05 01:07:28;;;;;;;;;;;;;;;4.38;100.00;101470.13;5054100;28;20237;-52
2021/11/05 01:09:54;;;;;;;;;;;;;;;4.40;100.00;101478.75;5051361;28;19928;-52
2021/11/05 01:12:21;;;;;;;;;;;;;;;4.38;100.00;101484.91;5068284;28;19967;-52
2021/11/05 01:14:48;;;;;;;;;;;;;;;4.35;100.00;101490.19;5036389;28;19932;-50
2021/11/05 01:17:15;;;;;;;;;;;;;;;4.30;100.00;101492.09;5070094;28;19979;-48
2021/11/05 01:19:42;;;;;;;;;;;;;;;4.30;100.00;101492.09;5053742;28;19925;-52
2021/11/05 01:22:09;;;;;;;;;;;;;;;4.21;100.00;101501.88;5054642;28;20269;-52
2021/11/05 01:24:36;;;;;;;;;;;;;;;4.21;100.00;101512.28;5069901;28;20445;-49
2021/11/05 01:27:03;;;;;;;;;;;;;;;4.17;100.00;101510.66;5069905;28;19932;-51
2021/11/05 01:29:29;;;;;;;;;;;;;;;4.21;100.00;101511.41;5054535;28;19932;-52
2021/11/05 01:31:56;;;;;;;;;;;;;;;4.23;100.00;101510.47;5036747;28;19925;-50
2021/11/05 01:34:23;;;;;;;;;;;;;;;4.18;100.00;101516.72;5052562;28;20380;-50
2021/11/05 01:36:51;;;;;;;;;;;;;;;4.20;100.00;101520.13;5051079;28;20026;-49
2021/11/05 01:39:17;;;;;;;;;;;;;;;4.17;100.00;101515.88;5045751;28;19926;-52
2021/11/05 01:41:44;;;;;;;;;;;;;;;4.19;100.00;101519.25;5049768;28;19924;-51
2021/11/05 01:44:11;;;;;;;;;;;;;;;4.07;100.00;101528.25;5047989;28;20336;-51
2021/11/05 01:46:42;;;;;;;;;;;;;;;4.06;100.00;101520.50;5015171;28;19933;-53
2021/11/05 01:49:09;;;;;;;;;;;;;;;4.05;100.00;101534.44;5043492;28;19931;-54
2021/11/05 01:51:37;;;;;;;;;;;;;;;4.01;100.00;101535.41;5047602;28;19971;-46
2021/11/05 01:54:04;;;;;;;;;;;;;;;3.96;100.00;101540.72;5048168;28;19929;-44
2021/11/05 01:56:32;;;;;;;;;;;;;;;3.96;100.00;101542.47;5039273;28;19925;-46
2021/11/05 01:58:58;;;;;;;;;;;;;;;3.94;100.00;101544.25;5042624;28;19928;-44
2021/11/05 02:01:25;;;;;;;;;;;;;;;3.93;100.00;101542.53;5047744;28;20286;-54
2021/11/05 02:03:52;;;;;;;;;;;;;;;3.96;100.00;101552.88;5041389;28;19925;-48
2021/11/05 02:06:22;;;;;;;;;;;;;;;3.87;100.00;101553.97;5048936;28;20399;-44
2021/11/05 02:08:50;;;;;;;;;;;;;;;3.84;100.00;101556.66;5040483;28;20395;-51
2021/11/05 02:11:18;;;;;;;;;;;;;;;3.81;100.00;101551.53;5047155;28;20388;-44
2021/11/05 02:13:45;;;;;;;;;;;;;;;3.74;100.00;101553.44;5043520;28;19925;-46
2021/11/05 02:16:12;;;;;;;;;;;;;;;3.74;100.00;101553.44;5046417;28;19936;-47
2021/11/05 02:18:40;;;;;;;;;;;;;;;3.71;100.00;101559.56;5040801;28;19933;-45
2021/11/05 02:21:08;;;;;;;;;;;;;;;3.73;100.00;101567.31;5046441;28;19926;-45
2021/11/05 02:23:35;;;;;;;;;;;;;;;3.70;100.00;101562.19;5039836;28;19972;-46
2021/11/05 02:26:02;;;;;;;;;;;;;;;3.65;100.00;101570.09;5060451;28;19925;-49
2021/11/05 02:28:34;;;;;;;;;;;;;;;3.62;100.00;101579.75;5039821;28;20384;-45
2021/11/05 02:31:01;;;;;;;;;;;;;;;3.61;100.00;101575.44;5047803;28;19931;-47
2021/11/05 02:33:28;;;;;;;;;;;;;;;3.60;100.00;101573.72;5039790;28;19925;-47
2021/11/05 02:35:54;;;;;;;;;;;;;;;3.52;100.00;101579.97;5052436;28;19925;-48
2021/11/05 02:38:21;;;;;;;;;;;;;;;3.50;100.00;101581.72;5031598;28;20486;-48
2021/11/05 02:40:48;;;;;;;;;;;;;;;3.50;100.00;101586.09;5040090;28;19929;-45
2021/11/05 02:43:15;;;;;;;;;;;;;;;3.52;100.00;101590.38;5050874;28;19931;-49
2021/11/05 02:45:50;;;;;;;;;;;;;;;3.55;100.00;101592.06;5049191;28;19925;-46
2021/11/05 02:48:17;;;;;;;;;;;;;;;3.51;100.00;101593.84;5046755;28;20027;-46
2021/11/05 02:50:44;;;;;;;;;;;;;;;3.48;100.00;101601.75;5049591;28;19929;-46
2021/11/05 02:53:10;;;;;;;;;;;;;;;3.50;100.00;101597.34;5042874;28;19929;-46
2021/11/05 02:55:37;;;;;;;;;;;;;;;3.43;100.00;101608.78;5048473;28;19932;-44
2021/11/05 02:58:04;;;;;;;;;;;;;;;3.39;100.00;101607.16;5049734;28;19932;-43
2021/11/05 03:00:31;;;;;;;;;;;;;;;3.35;100.00;101602.91;5053576;28;20361;-45
2021/11/05 03:02:58;;;;;;;;;;;;;;;3.36;100.00;101610.66;5043125;28;19931;-45
2021/11/05 03:05:25;;;;;;;;;;;;;;;3.38;100.00;101613.22;5050651;28;19932;-45
2021/11/05 03:07:52;;;;;;;;;;;;;;;3.41;100.00;101621.00;5050855;28;20380;-45
2021/11/05 03:10:18;;;;;;;;;;;;;;;3.38;100.00;101616.72;5040962;28;19924;-49
2021/11/05 03:12:45;;;;;;;;;;;;;;;3.38;100.00;101618.44;5051019;28;20430;-46
2021/11/05 03:15:12;;;;;;;;;;;;;;;3.30;100.00;101623.81;5067325;28;20016;-44
2021/11/05 03:17:39;;;;;;;;;;;;;;;3.30;100.00;101628.16;5048708;28;19967;-45
2021/11/05 03:20:07;;;;;;;;;;;;;;;3.29;100.00;101632.50;5067215;28;19924;-48
2021/11/05 03:22:33;;;;;;;;;;;;;;;3.31;100.00;101635.06;5052651;28;19925;-44
2021/11/05 03:25:00;;;;;;;;;;;;;;;3.30;100.00;101635.94;5051699;28;20387;-44
2021/11/05 03:27:27;;;;;;;;;;;;;;;3.31;100.00;101640.28;5067925;28;20294;-45
2021/11/05 03:29:53;;;;;;;;;;;;;;;3.28;100.00;101640.34;5052109;28;20387;-53
2021/11/05 03:32:20;;;;;;;;;;;;;;;3.28;100.00;101642.94;5048580;28;20483;-50
2021/11/05 03:34:47;;;;;;;;;;;;;;;3.24;100.00;101649.94;5049409;28;19932;-50
2021/11/05 03:37:13;;;;;;;;;;;;;;;3.21;100.00;101656.06;5052041;28;19931;-52
2021/11/05 03:39:40;;;;;;;;;;;;;;;3.23;100.00;101658.63;5056530;28;19928;-52
2021/11/05 03:42:07;;;;;;;;;;;;;;;3.21;100.00;101656.06;5056394;28;20372;-52
2021/11/05 03:44:34;;;;;;;;;;;;;;;3.16;100.00;101660.53;5056577;28;19925;-50
2021/11/05 03:47:00;;;;;;;;;;;;;;;3.21;100.00;101669.06;5068620;28;20339;-52
2021/11/05 03:49:29;;;;;;;;;;;;;;;3.16;100.00;101668.31;5052251;28;19925;-54
2021/11/05 03:51:56;;;;;;;;;;;;;;;3.16;100.00;101676.13;5055901;28;19929;-53
2021/11/05 03:54:23;;;;;;;;;;;;;;;3.13;100.00;101672.72;5056219;28;19925;-53
2021/11/05 03:56:50;;;;;;;;;;;;;;;3.17;100.00;101675.22;5055921;28;19925;-51
2021/11/05 03:59:17;;;;;;;;;;;;;;;3.14;100.00;101677.88;5056085;28;20390;-50
2021/11/05 04:01:44;;;;;;;;;;;;;;;3.13;100.00;101683.97;5055895;28;20300;-52
2021/11/05 04:04:13;;;;;;;;;;;;;;;3.10;100.00;101684.03;5054401;28;19924;-54
2021/11/05 04:06:39;;;;;;;;;;;;;;;3.13;100.00;101691.75;5056015;28;19936;-49
2021/11/05 04:09:06;;;;;;;;;;;;;;;3.10;100.00;101697.03;5054905;28;19932;-51
2021/11/05 04:11:33;;;;;;;;;;;;;;;3.10;100.00;101702.22;5056042;28;20276;-50
2021/11/05 04:13:59;;;;;;;;;;;;;;;3.12;100.00;101700.47;5056064;28;20457;-50
2021/11/05 04:16:26;;;;;;;;;;;;;;;3.13;100.00;101704.75;5055865;28;19924;-45
2021/11/05 04:18:52;;;;;;;;;;;;;;;3.06;100.00;101704.94;5053180;28;19925;-50
2021/11/05 04:21:19;;;;;;;;;;;;;;;3.05;100.00;101719.66;5053423;28;19929;-44
2021/11/05 04:23:46;;;;;;;;;;;;;;;3.02;100.00;101725.75;5055776;28;19925;-49
2021/11/05 04:26:13;;;;;;;;;;;;;;;3.00;100.00;101722.34;5071019;28;19925;-48
2021/11/05 04:28:40;;;;;;;;;;;;;;;3.01;100.00;101726.69;5053187;28;19924;-44
2021/11/05 04:31:07;;;;;;;;;;;;;;;3.02;100.00;101727.53;5051799;28;19975;-44
2021/11/05 04:33:34;;;;;;;;;;;;;;;3.05;100.00;101732.66;5055191;28;19925;-40
2021/11/05 04:36:02;;;;;;;;;;;;;;;3.07;100.00;101733.50;5055486;28;19924;-43
2021/11/05 04:38:28;;;;;;;;;;;;;;;3.07;100.00;101737.81;5055525;28;19929;-43
2021/11/05 04:40:55;;;;;;;;;;;;;;;3.10;100.00;101737.78;5055270;28;19928;-42
2021/11/05 04:43:22;;;;;;;;;;;;;;;3.08;100.00;101740.41;5054096;28;19928;-44
2021/11/05 04:45:49;;;;;;;;;;;;;;;3.07;100.00;101741.28;5055320;28;19982;-42
2021/11/05 04:48:15;;;;;;;;;;;;;;;3.04;100.00;101752.59;5055003;28;19986;-44
2021/11/05 04:50:42;;;;;;;;;;;;;;;3.05;100.00;101750.84;5054157;28;19925;-45
2021/11/05 04:53:10;;;;;;;;;;;;;;;3.03;100.00;101750.88;5054008;28;20318;-45
2021/11/05 04:55:36;;;;;;;;;;;;;;;3.06;100.00;101757.75;5053765;28;19960;-55
2021/11/05 04:58:03;;;;;;;;;;;;;;;3.07;100.00;101763.81;5067013;28;19924;-53
2021/11/05 05:00:30;;;;;;;;;;;;;;;3.06;100.00;101767.31;5054430;28;20330;-51
2021/11/05 05:02:57;;;;;;;;;;;;;;;3.02;100.00;101771.72;5054551;28;19982;-50
2021/11/05 05:05:24;;;;;;;;;;;;;;;3.02;100.00;101782.94;5053486;28;20295;-48
2021/11/05 05:07:51;;;;;;;;;;;;;;;3.01;100.00;101780.38;5052014;28;19924;-49
2021/11/05 05:10:18;;;;;;;;;;;;;;;3.00;100.00;101789.94;5053219;28;20383;-49
2021/11/05 05:12:45;;;;;;;;;;;;;;;3.00;100.00;101791.66;5054523;28;19932;-46
2021/11/05 05:15:12;;;;;;;;;;;;;;;2.98;100.00;101793.44;5054757;28;19933;-46
2021/11/05 05:17:39;;;;;;;;;;;;;;;3.01;100.00;101799.44;5054665;28;20559;-49
2021/11/05 05:20:07;;;;;;;;;;;;;;;2.96;100.00;101798.66;5069176;28;20311;-48
2021/11/05 05:22:34;;;;;;;;;;;;;;;2.95;100.00;101798.69;5052177;28;19936;-45
2021/11/05 05:25:02;;;;;;;;;;;;;;;2.95;100.00;101796.94;5053619;28;20467;-51
2021/11/05 05:27:28;;;;;;;;;;;;;;;2.96;100.00;101803.88;5053401;28;19924;-52
2021/11/05 05:29:56;;;;;;;;;;;;;;;2.91;100.00;101812.63;5054433;28;20387;-48
2021/11/05 05:32:23;;;;;;;;;;;;;;;2.92;100.00;101811.72;5054476;28;20291;-52
2021/11/05 05:34:50;;;;;;;;;;;;;;;2.91;100.00;101815.22;5053273;28;20330;-50
2021/11/05 05:37:17;;;;;;;;;;;;;;;2.90;100.00;101816.13;5069697;28;19928;-48
2021/11/05 05:39:43;;;;;;;;;;;;;;;2.85;100.00;101817.03;5069532;28;19932;-49
2021/11/05 05:42:10;;;;;;;;;;;;;;;2.92;100.00;101824.72;5054230;28;19929;-51
2021/11/05 05:44:37;;;;;;;;;;;;;;;2.88;100.00;101837.78;5053719;28;19935;-50
2021/11/05 05:47:08;;;;;;;;;;;;;;;2.85;100.00;101837.84;5050233;28;20388;-50
2021/11/05 05:49:35;;;;;;;;;;;;;;;2.87;100.00;101835.22;5067985;28;19960;-49
2021/11/05 05:52:02;;;;;;;;;;;;;;;2.87;100.00;101845.59;5053965;28;19928;-52
2021/11/05 05:54:28;;;;;;;;;;;;;;;2.84;100.00;101845.66;5052133;28;19978;-48
2021/11/05 05:56:57;;;;;;;;;;;;;;;2.86;100.00;101846.47;5045511;28;20415;-45
2021/11/05 05:59:24;;;;;;;;;;;;;;;2.88;100.00;101850.75;5053983;28;19932;-51
2021/11/05 06:01:51;;;;;;;;;;;;;;;2.85;100.00;101856.03;5052079;28;19975;-52
2021/11/05 06:04:19;;;;;;;;;;;;;;;2.80;100.00;101860.44;5052486;28;19925;-50
2021/11/05 06:06:46;;;;;;;;;;;;;;;2.86;100.00;101860.34;5048429;28;19928;-51
2021/11/05 06:09:12;;;;;;;;;;;;;;;2.78;100.00;101856.13;5044485;28;19925;-46
2021/11/05 06:11:39;;;;;;;;;;;;;;;2.76;100.00;101869.16;5053762;28;19925;-46
2021/11/05 06:14:06;;;;;;;;;;;;;;;2.77;100.00;101870.88;5044057;28;20334;-47
2021/11/05 06:16:32;;;;;;;;;;;;;;;2.77;100.00;101878.69;5033776;28;19980;-45
2021/11/05 06:19:00;;;;;;;;;;;;;;;2.80;100.00;101878.63;5034783;28;19929;-48
2021/11/05 06:21:26;;;;;;;;;;;;;;;2.80;100.00;101880.38;5033287;28;19939;-44
2021/11/05 06:23:53;;;;;;;;;;;;;;;2.83;100.00;101875.97;5033361;28;20269;-44
2021/11/05 06:26:20;;;;;;;;;;;;;;;2.84;100.00;101888.09;5032977;28;19948;-44
2021/11/05 06:28:47;;;;;;;;;;;;;;;2.88;100.00;101884.56;5030711;28;20315;-46
2021/11/05 06:31:14;;;;;;;;;;;;;;;2.92;100.00;101889.69;5031858;28;20343;-46
2021/11/05 06:33:40;;;;;;;;;;;;;;;2.98;100.00;101898.25;5030182;28;20002;-45
2021/11/05 06:36:07;;;;;;;;;;;;;;;2.99;100.00;101892.16;5030147;28;19932;-44
2021/11/05 06:38:34;;;;;;;;;;;;;;;3.03;100.00;101899.03;5032663;28;19925;-50
2021/11/05 06:41:03;;;;;;;;;;;;;;;3.06;100.00;101908.53;5032373;28;20201;-45
2021/11/05 06:43:30;;;;;;;;;;;;;;;3.10;100.00;101915.38;5032995;28;20406;-48
2021/11/05 06:45:57;;;;;;;;;;;;;;;3.12;100.00;101913.63;5030550;28;19940;-47
2021/11/05 06:48:24;;;;;;;;;;;;;;;3.16;100.00;101928.28;5029052;28;19971;-44
2021/11/05 06:50:56;;;;;;;;;;;;;;;3.15;100.00;101923.97;5032244;28;19951;-44
2021/11/05 06:53:23;;;;;;;;;;;;;;;3.19;100.00;101925.63;5032956;28;19932;-43
2021/11/05 06:55:50;;;;;;;;;;;;;;;3.21;100.00;101936.84;5033325;28;19933;-45
2021/11/05 06:58:16;;;;;;;;;;;;;;;3.25;100.00;101940.28;5033178;28;20391;-43
2021/11/05 07:00:43;;;;;;;;;;;;;;;3.25;100.00;101944.63;5031498;28;20016;-48
2021/11/05 07:03:10;;;;;;;;;;;;;;;3.29;100.00;101948.88;5028336;28;19929;-44
2021/11/05 07:05:36;;;;;;;;;;;;;;;3.33;100.00;101955.75;5031540;28;20339;-44
2021/11/05 07:08:04;;;;;;;;;;;;;;;3.35;100.00;101964.38;5030427;28;20346;-47
2021/11/05 07:10:31;;;;;;;;;;;;;;;3.38;100.00;101967.78;5029935;28;19960;-44
2021/11/05 07:12:58;;;;;;;;;;;;;;;3.40;100.00;101969.50;5031926;28;19929;-45
2021/11/05 07:15:24;;;;;;;;;;;;;;;3.45;100.00;101976.34;5033117;28;19925;-46
2021/11/05 07:17:51;;;;;;;;;;;;;;;3.49;100.00;101977.13;5033076;28;20346;-45
2021/11/05 07:20:18;;;;;;;;;;;;;;;3.52;100.00;101980.56;5032860;28;19929;-48
2021/11/05 07:22:45;;;;;;;;;;;;;;;3.55;100.00;101979.63;5031406;28;19925;-51
2021/11/05 07:25:12;;;;;;;;;;;;;;;3.59;100.00;101980.47;5031885;28;20419;-48
2021/11/05 07:27:39;;;;;;;;;;;;;;;3.61;100.00;101983.88;5030599;28;20388;-51
2021/11/05 07:30:08;;;;;;;;;;;;;;;3.64;100.00;101996.81;5013998;28;19925;-49
2021/11/05 07:32:35;;;;;;;;;;;;;;;3.69;100.00;102001.06;5032667;28;19925;-51
2021/11/05 07:35:03;;;;;;;;;;;;;;;3.73;100.00;102004.47;5033110;28;19929;-49
2021/11/05 07:37:30;;;;;;;;;;;;;;;3.77;100.00;102000.91;5032602;28;19929;-45
2021/11/05 07:39:57;;;;;;;;;;;;;;;3.84;100.00;102010.31;5032602;28;19932;-44
2021/11/05 07:42:24;;;;;;;;;;;;;;;3.91;100.00;102010.22;5032398;28;19975;-44
2021/11/05 07:44:50;;;;;;;;;;;;;;;3.96;100.00;102018.81;5030937;28;20265;-44
2021/11/05 07:47:22;;;;;;;;;;;;;;;3.99;100.00;102023.94;5028231;28;19933;-44
2021/11/05 07:49:50;;;;;;;;;;;;;;;4.06;100.00;102022.94;5032550;28;19925;-44
2021/11/05 07:52:19;;;;;;;;;;;;;;;4.14;100.00;102026.25;5030370;28;20383;-49
2021/11/05 07:54:48;;;;;;;;;;;;;;;4.17;100.00;102031.44;5029981;28;19971;-47
2021/11/05 07:57:15;;;;;;;;;;;;;;;4.23;100.00;102031.28;5030287;28;19960;-46
2021/11/05 07:59:41;;;;;;;;;;;;;;;4.30;100.00;102029.44;5032608;28;20372;-44
2021/11/05 08:02:08;;;;;;;;;;;;;;;4.37;100.00;102037.97;5031854;28;19932;-45
2021/11/05 08:04:35;;;;;;;;;;;;;;;4.42;100.00;102041.34;5011983;28;19971;-44
2021/11/05 08:07:02;;;;;;;;;;;;;;;4.50;100.00;102046.38;5030616;28;19991;-44
2021/11/05 08:09:29;;;;;;;;;;;;;;;4.57;100.00;102041.03;5032343;28;19976;-50
2021/11/05 08:11:56;;;;;;;;;;;;;;;4.73;100.00;102045.91;5032483;28;19932;-50
2021/11/05 08:14:23;;;;;;;;;;;;;;;4.93;100.00;102042.03;5030115;28;20510;-53
2021/11/05 08:16:50;;;;;;;;;;;;;;;5.14;100.00;102044.16;5028317;28;19933;-49
2021/11/05 08:19:16;;;;;;;;;;;;;;;5.55;100.00;102054.50;5032306;28;19932;-49
2021/11/05 08:21:43;;;;;;;;;;;;;;;5.65;100.00;102058.56;5030998;28;19987;-48
2021/11/05 08:24:10;;;;;;;;;;;;;;;5.81;100.00;102059.03;5030026;28;19956;-48
2021/11/05 08:26:36;;;;;;;;;;;;;;;6.21;100.00;102063.22;5034401;28;20376;-48
2021/11/05 08:29:04;;;;;;;;;;;;;;;6.48;100.00;102071.22;5035150;28;20311;-51
2021/11/05 08:31:31;;;;;;;;;;;;;;;6.58;100.00;102077.88;5034063;28;19929;-49
2021/11/05 08:33:58;;;;;;;;;;;;;;;6.88;100.00;102075.25;5035299;28;19925;-50
2021/11/05 08:36:25;;;;;;;;;;;;;;;6.93;100.00;102081.22;5034987;28;19925;-48
2021/11/05 08:38:52;;;;;;;;;;;;;;;6.99;100.00;102081.94;5033282;28;19925;-50
2021/11/05 08:41:19;;;;;;;;;;;;;;;7.09;100.00;102093.84;5031290;28;20376;-52
2021/11/05 08:43:48;;;;;;;;;;;;;;;7.19;100.00;102090.03;5035275;28;19925;-52
2021/11/05 08:46:16;;;;;;;;;;;;;;;7.26;100.00;102096.78;5031812;28;20537;-51
2021/11/05 08:49:02;;;;;;;;;;;;;;;7.49;100.00;102100.44;5031546;28;19933;-52
2021/11/05 08:51:29;;;;;;;;;;;;;;;7.68;100.00;102102.47;5033330;28;19929;-53
2021/11/05 08:53:56;;;;;;;;;;;;;;;7.70;100.00;102103.25;5034079;28;19925;-52
2021/11/05 08:56:23;;;;;;;;;;;;;;;7.74;100.00;102110.09;5035090;28;19925;-50
2021/11/05 08:58:49;;;;;;;;;;;;;;;7.89;100.00;102112.22;5031640;28;20364;-53
2021/11/05 09:01:16;;;;;;;;;;;;;;;8.01;100.00;102112.72;5032998;28;19932;-49
2021/11/05 09:03:43;;;;;;;;;;;;;;;8.23;100.00;102115.44;5031694;28;19991;-49
2021/11/05 09:06:10;;;;;;;;;;;;;;;8.51;100.00;102115.38;5032091;28;20462;-51
2021/11/05 09:08:37;;;;;;;;;;;;;;;8.46;100.00;102112.03;5033280;28;19925;-50
2021/11/05 09:11:07;;;;;;;;;;;;;;;8.39;100.00;102115.78;5034848;28;19925;-51
2021/11/05 09:13:34;;;;;;;;;;;;;;;8.41;100.00;102117.44;5033792;28;19975;-52
2021/11/05 09:16:02;;;;;;;;;;;;;;;8.78;100.00;102120.47;5035056;28;19929;-52
2021/11/05 09:18:28;;;;;;;;;;;;;;;9.25;100.00;102122.22;5034957;28;20369;-50
2021/11/05 09:20:55;;;;;;;;;;;;;;;9.47;100.00;102123.09;5031067;28;20396;-50
2021/11/05 09:23:24;;;;;;;;;;;;;;;9.76;99.19;102114.91;5031219;28;19929;-52
2021/11/05 09:25:51;;;;;;;;;;;;;;;10.11;98.58;102117.84;5034728;28;19925;-52
2021/11/05 09:28:18;;;;;;;;;;;;;;;10.27;95.39;102126.78;5034668;28;20436;-53
2021/11/05 09:30:44;;;;;;;;;;;;;;;10.64;94.13;102138.31;5031588;28;20625;-52
2021/11/05 09:33:11;;;;;;;;;;;;;;;10.53;94.15;102135.31;5029909;28;19929;-52
2021/11/05 09:35:38;;;;;;;;;;;;;;;10.82;93.58;102138.41;5032062;28;20400;-55
2021/11/05 09:38:05;;;;;;;;;;;;;;;11.22;91.68;102141.84;5034816;28;19975;-50
2021/11/05 09:40:32;;;;;;;;;;;;;;;11.38;90.24;102141.09;5034396;28;19929;-54
2021/11/05 09:42:59;;;;;;;;;;;;;;;11.55;89.82;102145.56;5033159;28;19964;-53
2021/11/05 09:45:30;;;;;;;;;;;;;;;11.68;89.54;102151.94;5017112;28;19925;-52
2021/11/05 09:48:00;;;;;;;;;;;;;;;12.05;87.52;102152.75;5034357;28;19955;-55
2021/11/05 09:50:27;;;;;;;;;;;;;;;12.47;84.15;102153.28;5032836;28;19925;-54
2021/11/05 09:52:54;;;;;;;;;;;;;;;12.75;84.03;102160.59;5032905;28;19991;-55
2021/11/05 09:55:20;;;;;;;;;;;;;;;12.54;82.43;102164.38;5033146;28;19925;-55
2021/11/05 09:57:47;;;;;;;;;;;;;;;12.46;83.87;102170.03;5029965;28;19933;-54
2021/11/05 10:00:15;;;;;;;;;;;;;;;12.71;83.22;102172.25;5033184;28;19932;-56
2021/11/05 10:02:43;;;;;;;;;;;;;;;12.37;84.32;102181.09;5029876;28;20346;-55
2021/11/05 10:05:11;;;;;;;;;;;;;;;12.29;84.47;102178.84;5029867;28;19929;-48
2021/11/05 10:07:48;;;;;;;;;;;;;;;12.22;84.96;102182.72;5033515;28;19925;-47
2021/11/05 10:10:15;;;;;;;;;;;;;;;12.71;83.62;102189.84;5033752;28;19925;-50
2021/11/05 10:12:52;;;;;;;;;;;;;;;12.66;84.20;102190.97;5031324;28;19971;-49
2021/11/05 10:15:19;;;;;;;;;;;;;;;12.81;81.66;102191.94;5030658;28;19932;-46
2021/11/05 10:17:46;;;;;;;;;;;;;;;13.18;81.58;102197.91;5033926;28;19926;-47
2021/11/05 10:20:12;;;;;;;;;;;;;;;13.65;80.38;102196.19;5033750;28;19980;-47
2021/11/05 10:22:49;;;;;;;;;;;;;;;13.38;79.95;102203.88;5032336;28;20458;-46
2021/11/05 10:25:16;;;;;;;;;;;;;;;13.81;78.13;102193.53;5033643;28;20907;-46
2021/11/05 10:27:43;;;;;;;;;;;;;;;14.19;77.39;102208.97;5033803;28;20380;-48
2021/11/05 10:30:10;;;;;;;;;;;;;;;14.50;75.50;102207.13;5029467;28;19928;-48
2021/11/05 10:32:40;;;;;;;;;;;;;;;14.59;75.43;102199.56;5030216;28;20323;-56
2021/11/05 10:35:11;;;;;;;;;;;;;;;14.41;74.26;102201.53;5032285;28;19929;-56
2021/11/05 10:37:41;;;;;;;;;;;;;;;14.96;73.73;102203.50;5031772;28;19925;-55
2021/11/05 10:40:09;;;;;;;;;;;;;;;15.21;74.03;102201.94;5029267;28;19925;-56
2021/11/05 10:42:37;;;;;;;;;;;;;;;15.56;70.13;102209.47;5031972;28;19925;-55
2021/11/05 10:45:14;;;;;;;;;;;;;;;15.62;70.40;102216.16;5031341;28;19975;-56
2021/11/05 10:47:53;;;;;;;;;;;;;;;15.80;70.22;102206.19;5027744;28;19995;-55
2021/11/05 10:50:25;;;;;;;;;;;;;;;16.02;69.98;102206.47;5032260;28;19925;-56
2021/11/05 10:52:58;;;;;;;;;;;;;;;16.20;67.80;102214.16;5029747;28;20424;-48
2021/11/05 10:55:27;;;;;;;;;;;;;;;16.35;68.71;102213.09;5031223;28;19929;-52
2021/11/05 10:57:55;;;;;;;;;;;;;;;16.36;67.36;102200.66;5031902;28;20332;-57
2021/11/05 11:00:26;;;;;;;;;;;;;;;16.27;67.53;102201.31;5033198;28;20388;-48
2021/11/05 11:02:52;;;;;;;;;;;;;;;16.07;67.03;102215.91;5029351;28;19929;-56
2021/11/05 11:05:32;;;;;;;;;;;;;;;16.01;67.52;102214.53;5029318;28;19933;-56
2021/11/05 11:08:00;;;;;;;;;;;;;;;15.94;68.02;102224.69;5033086;28;20392;-56
2021/11/05 11:10:27;;;;;;;;;;;;;;;15.74;68.63;102230.44;5031832;28;19933;-54
2021/11/05 11:12:54;;;;;;;;;;;;;;;15.69;69.08;102228.94;5029229;28;19933;-55
2021/11/05 11:15:36;;;;;;;;;;;;;;;15.57;69.60;102227.06;5032000;28;19925;-55
2021/11/05 11:18:04;;;;;;;;;;;;;;;14.92;71.64;102225.00;5031787;28;20689;-56
2021/11/05 11:20:31;;;;;;;;;;;;;;;15.01;72.05;102225.25;5032980;28;19925;-55
2021/11/05 11:22:58;;;;;;;;;;;;;;;14.43;73.63;102231.44;5033091;28;19955;-48
2021/11/05 11:25:25;;;;;;;;;;;;;;;14.76;74.54;102227.72;5031710;28;20395;-55
2021/11/05 11:27:51;;;;;;;;;;;;;;;14.59;75.27;102229.56;5032809;28;20019;-52
2021/11/05 11:30:19;;;;;;;;;;;;;;;14.62;75.19;102236.47;5032648;28;19926;-55
2021/11/05 11:32:49;;;;;;;;;;;;;;;14.69;74.68;102228.06;5031604;28;19925;-54
2021/11/05 11:35:17;;;;;;;;;;;;;;;14.64;74.74;102230.19;5033063;28;19932;-55
2021/11/05 11:37:44;;;;;;;;;;;;;;;14.62;74.31;102232.00;5032753;28;19929;-55
2021/11/05 11:40:11;;;;;;;;;;;;;;;14.63;74.87;102232.88;5031147;28;19925;-54
2021/11/05 11:42:38;;;;;;;;;;;;;;;14.59;73.94;102237.50;5029067;28;19983;-54
2021/11/05 11:45:09;;;;;;;;;;;;;;;14.41;74.86;102231.53;5030595;28;19967;-55
2021/11/05 11:47:42;;;;;;;;;;;;;;;14.55;74.02;102236.00;5032671;28;19933;-54
2021/11/05 11:50:28;;;;;;;;;;;;;;;14.66;74.50;102232.72;5031325;28;19983;-54
2021/11/05 11:52:57;;;;;;;;;;;;;;;14.62;74.75;102231.19;5032525;28;19926;-53
2021/11/05 11:55:24;;;;;;;;;;;;;;;14.66;73.37;102232.72;5032425;28;19979;-54
2021/11/05 11:58:09;;;;;;;;;;;;;;;14.53;73.56;102238.72;5032382;28;19925;-52
2021/11/05 12:00:36;;;;;;;;;;;;;;;14.27;74.10;102237.59;5036242;28;19929;-55
2021/11/05 12:03:03;;;;;;;;;;;;;;;14.17;74.61;102236.47;5035065;28;20143;-53
2021/11/05 12:05:30;;;;;;;;;;;;;;;14.11;75.88;102236.81;5035338;28;19975;-54
2021/11/05 12:08:16;;;;;;;;;;;;;;;13.95;75.33;102232.41;5030741;28;19972;-53
2021/11/05 12:10:45;;;;;;;;;;;;;;;13.46;74.05;102240.47;5023847;28;19929;-47
2021/11/05 12:13:30;;;;;;;;;;;;;;;13.48;74.50;102244.72;5056097;28;20308;-48
2021/11/05 12:16:26;;;;;;;;;;;;;;;13.37;73.92;102240.97;5055999;28;19925;-45
2021/11/05 12:18:59;;;;;;;;;;;;;;;13.32;74.37;102249.97;5054472;28;19931;-48
2021/11/05 12:21:34;;;;;;;;;;;;;;;13.31;73.44;102242.97;5042806;28;19925;-49
2021/11/05 12:24:17;;;;;;;;;;;;;;;13.02;75.62;102242.75;5032835;28;19979;-53
2021/11/05 12:26:48;;;;;;;;;;;;;;;13.12;75.64;102247.56;5051639;28;20392;-54
2021/11/05 12:29:29;;;;;;;;;;;;;;;13.08;75.23;102252.13;5054419;28;19925;-54
2021/11/05 12:31:56;;;;;;;;;;;;;;;13.16;75.79;102255.22;5031433;28;19932;-55
2021/11/05 12:34:24;;;;;;;;;;;;;;;13.16;76.40;102262.31;5034418;28;19964;-51
2021/11/05 12:36:55;;;;;;;;;;;;;;;13.11;77.30;102266.97;5063713;28;19932;-55
2021/11/05 12:39:36;;;;;;;;;;;;;;;13.12;76.77;102263.41;5032389;28;19940;-51